Latest Weather Observations for Warrnambool

IDV60801

Issued at 10:02 am EDT Saturday 20 December 2014 (issued every 30 minutes, with the page automatically refreshed every 10 minutes)

About weather observations | Map of weather stations | Latest weather observations for VIC | Other Formats
Station Details ID: 090186 Name: WARRNAMBOOL AIRPORT NDB Lat: -38.29 Lon: 142.45 Height: 70.8 m
Data from the previous 72 hours. | See also: Recent months at Warrnambool
Date/Time
EDT
Temp
°C
App
Temp
°C
Dew
Point
Rel
Hum
%
Delta-T
°C
Wind Press
QNH
hPa
Press
MSL
hPa
Rain
since 9 am
mm
Dir
 
Spd
km/h
Gust
km/h
Spd
kts
Gust
kts
20/10:00am 18.2 15.4 11.5 65 3.7 W 17 28 9 15 1019.7 1019.6 0.0
20/09:30am 16.6 13.7 10.9 69 3.1 W 17 24 9 13 1019.7 1019.6 0.0
20/09:00am 16.3 13.7 10.8 70 2.9 W 15 20 8 11 1019.5 1019.4 0.0
20/08:30am 15.1 13.5 11.5 79 1.9 WNW 11 13 6 7 1019.1 1019.0 0.0
20/08:00am 13.8 12.5 11.1 84 1.4 NW 9 13 5 7 1019.0 1018.9 0.0
20/07:30am 12.9 11.1 11.0 88 1.0 NW 11 15 6 8 1018.5 1018.4 0.0
20/07:00am 11.9 9.6 10.3 90 0.8 NW 13 17 7 9 1018.3 1018.2 0.0
20/06:30am 11.3 9.2 9.9 91 0.7 NW 11 13 6 7 1018.2 1018.1 0.0
20/06:00am 10.8 8.2 9.4 91 0.7 NW 13 15 7 8 1018.1 1018.0 0.0
20/05:30am 9.3 6.3 7.7 90 0.8 NW 13 17 7 9 1018.1 1018.0 0.0
20/05:00am 9.4 6.4 7.7 89 0.8 NW 13 17 7 9 1018.0 1017.9 0.0
20/04:30am 9.8 6.5 7.9 88 0.9 NW 15 17 8 9 1017.9 1017.8 0.0
20/04:00am 10.4 7.6 8.7 89 0.8 NW 13 17 7 9 1018.0 1017.9 0.0
20/03:30am 10.1 7.3 8.7 91 0.7 NW 13 17 7 9 1018.2 1018.1 0.0
20/03:00am 8.2 5.4 6.8 91 0.6 NW 11 13 6 7 1018.5 1018.4 0.0
20/02:30am 7.9 5.4 6.4 90 0.7 NNW 9 11 5 6 1018.7 1018.6 0.0
20/02:00am 8.2 5.7 6.7 90 0.7 NNW 9 13 5 7 1018.9 1018.8 0.0
20/01:30am 8.7 6.3 7.2 90 0.7 NW 9 11 5 6 1019.4 1019.3 0.0
20/01:00am 9.3 7.1 7.7 90 0.8 NW 9 11 5 6 1019.5 1019.4 0.0
20/12:30am 8.2 5.3 6.5 89 0.8 NW 11 13 6 7 1019.9 1019.8 0.0
20/12:00am 8.6 6.1 6.6 87 0.9 NNW 9 9 5 5 1020.0 1019.9 0.0
 
Date/Time
EDT
Temp
°C
App
Temp
°C
Dew
Point
Rel
Hum
%
Delta-T
°C
Wind Press
QNH
hPa
Press
MSL
hPa
Rain
since 9 am
mm
Dir
 
Spd
km/h
Gust
km/h
Spd
kts
Gust
kts
19/11:30pm 9.2 6.8 6.8 85 1.1 NW 9 11 5 6 1020.1 1020.0 0.0
19/11:00pm 10.5 8.3 7.7 83 1.3 WNW 9 11 5 6 1020.4 1020.3 0.0
19/10:30pm 10.9 8.6 7.6 80 1.6 WNW 9 11 5 6 1020.5 1020.4 0.0
19/10:00pm 11.3 8.6 7.4 77 1.9 W 11 13 6 7 1020.4 1020.3 0.0
19/09:30pm 12.2 9.2 7.5 73 2.3 W 13 17 7 9 1020.3 1020.2 0.0
19/09:00pm 13.3 9.5 7.7 69 2.8 WSW 17 20 9 11 1020.4 1020.3 0.0
19/08:30pm 14.4 9.9 8.4 67 3.0 SW 22 26 12 14 1020.4 1020.3 0.0
19/08:00pm 15.8 11.9 8.8 63 3.6 SW 19 26 10 14 1020.1 1020.0 0.0
19/07:30pm 16.4 11.6 8.9 61 3.9 SW 24 30 13 16 1019.9 1019.8 0.0
19/07:00pm 16.3 10.5 7.8 57 4.3 SW 28 35 15 19 1019.7 1019.6 0.0
19/06:30pm 16.7 10.1 7.6 55 4.6 SW 32 41 17 22 1019.4 1019.3 0.0
19/06:00pm 17.0 10.7 7.6 54 4.7 SW 30 39 16 21 1019.2 1019.1 0.0
19/05:30pm 17.1 10.8 7.5 53 4.8 SW 30 39 16 21 1019.1 1019.0 0.0
19/05:00pm 17.4 10.6 7.7 53 4.9 SW 33 44 18 24 1019.1 1019.0 0.0
19/04:30pm 17.6 10.6 6.8 49 5.4 SSW 33 43 18 23 1019.1 1019.0 0.0
19/04:00pm 17.9 10.4 7.9 52 5.1 SW 37 48 20 26 1019.2 1019.1 0.0
19/03:30pm 17.6 9.8 6.8 49 5.4 SW 37 50 20 27 1019.1 1019.0 0.0
19/03:00pm 18.3 11.3 8.3 52 5.1 SW 35 46 19 25 1019.1 1019.0 0.0
19/02:30pm 18.4 11.1 7.2 48 5.7 SW 35 46 19 25 1018.9 1018.8 0.0
19/02:00pm 18.5 11.7 7.6 49 5.5 SW 33 44 18 24 1018.9 1018.8 0.0
19/01:30pm 17.6 11.7 7.6 52 5.1 SW 28 37 15 20 1018.9 1018.8 0.0
19/01:00pm 17.7 12.0 6.6 48 5.5 SW 26 37 14 20 1019.0 1018.9 0.0
19/12:30pm 17.5 11.7 6.4 48 5.5 SW 26 39 14 21 1018.9 1018.8 0.0
19/12:00pm 17.1 10.9 6.0 48 5.4 SSW 28 39 15 21 1019.0 1018.9 0.0
19/11:30am 17.1 11.4 6.6 50 5.2 SW 26 37 14 20 1018.8 1018.7 0.0
19/11:00am 16.7 11.6 7.6 55 4.6 SW 24 32 13 17 1018.8 1018.7 0.0
19/10:30am 17.0 11.0 7.1 52 4.9 SW 28 37 15 20 1018.6 1018.5 0.0
19/10:00am 16.6 11.4 7.3 54 4.6 SW 24 33 13 18 1018.5 1018.4 0.0
19/09:30am 15.9 10.9 7.9 59 4.0 SW 24 35 13 19 1018.3 1018.2 0.0
19/09:00am 14.3 12.2 11.1 81 1.7 WNW 13 20 7 11 1018.0 1017.9 6.4
19/08:30am 11.3 8.6 8.9 85 1.2 NW 13 17 7 9 1017.8 1017.7 6.4
19/08:00am 11.0 7.8 8.6 85 1.2 NW 15 20 8 11 1017.4 1017.3 6.4
19/07:30am 11.7 9.6 9.6 87 1.1 NW 11 15 6 8 1016.8 1016.7 6.4
19/07:00am 8.4 5.3 7.2 92 0.6 NW 13 17 7 9 1016.5 1016.4 6.4
19/06:30am 7.1 4.0 5.6 90 0.7 NW 11 13 6 7 1016.2 1016.1 6.4
19/06:00am 8.0 4.7 6.5 90 0.7 NW 13 17 7 9 1015.9 1015.8 6.4
19/05:30am 8.5 5.4 7.1 91 0.7 NW 13 19 7 10 1015.7 1015.6 6.4
19/05:00am 8.4 5.6 6.9 90 0.7 NW 11 17 6 9 1015.4 1015.3 6.4
19/04:30am 8.9 6.2 7.2 89 0.8 NW 11 15 6 8 1015.3 1015.2 6.4
19/04:00am 9.5 6.1 7.6 88 0.9 NW 15 20 8 11 1015.1 1015.0 6.4
19/03:30am 9.8 7.5 7.4 85 1.1 WNW 9 15 5 8 1014.8 1014.7 6.4
19/03:00am 9.9 6.9 7.7 86 1.1 NW 13 17 7 9 1014.8 1014.7 6.4
19/02:30am 9.1 6.3 7.1 87 0.9 NW 11 15 6 8 1014.8 1014.7 6.4
19/02:00am 9.1 6.0 7.1 87 0.9 WNW 13 17 7 9 1014.9 1014.8 6.4
19/01:30am 10.3 7.8 8.1 86 1.1 WNW 11 20 6 11 1014.8 1014.7 6.4
19/01:00am 9.4 6.3 7.3 87 1.0 WNW 13 17 7 9 1014.8 1014.7 6.4
19/12:30am 9.7 7.1 7.8 88 0.9 WNW 11 15 6 8 1014.6 1014.5 6.4
19/12:00am 9.5 7.2 7.4 87 1.0 WNW 9 13 5 7 1014.6 1014.5 6.4
 
Date/Time
EDT
Temp
°C
App
Temp
°C
Dew
Point
Rel
Hum
%
Delta-T
°C
Wind Press
QNH
hPa
Press
MSL
hPa
Rain
since 9 am
mm
Dir
 
Spd
km/h
Gust
km/h
Spd
kts
Gust
kts
18/11:30pm 10.2 7.3 8.0 86 1.1 WNW 13 17 7 9 1014.4 1014.3 6.4
18/11:00pm 9.9 7.3 7.8 87 1.0 WNW 11 17 6 9 1014.3 1014.2 6.4
18/10:30pm 10.9 8.1 8.5 85 1.2 WNW 13 19 7 10 1014.3 1014.2 6.4
18/10:00pm 11.6 8.4 8.5 81 1.5 W 15 19 8 10 1014.0 1013.9 6.4
18/09:30pm 12.4 7.4 8.1 75 2.1 WSW 24 33 13 18 1013.6 1013.4 6.4
18/09:00pm 13.4 9.1 8.0 70 2.7 WSW 20 26 11 14 1013.3 1013.1 6.4
18/08:30pm 14.1 8.6 7.4 64 3.3 WSW 26 37 14 20 1012.7 1012.6 6.4
18/08:00pm 14.4 8.6 7.9 65 3.2 WSW 28 39 15 21 1012.5 1012.4 6.4
18/07:30pm 15.7 9.1 7.7 59 4.0 SW 32 39 17 21 1011.8 1011.7 6.4
18/07:26pm 16.2 10.2 8.7 61 3.8 SW 30 48 16 26 1011.8 1011.7 6.4
18/07:00pm 16.3 9.5 7.5 56 4.4 WSW 33 43 18 23 1011.4 1011.3 6.4
18/06:30pm 16.7 9.4 7.1 53 4.8 WSW 35 46 19 25 1010.9 1010.8 6.4
18/06:00pm 16.1 9.1 8.3 60 4.0 SW 35 46 19 25 1010.5 1010.4 6.4
18/05:30pm 16.5 9.3 9.0 61 3.9 SW 37 48 20 26 1010.0 1009.9 6.4
18/05:00pm 16.7 9.8 8.9 60 4.0 WSW 35 48 19 26 1009.8 1009.7 6.4
18/04:30pm 16.9 9.9 8.6 58 4.3 WSW 35 50 19 27 1009.2 1009.1 6.4
18/04:00pm 17.3 11.3 10.7 65 3.6 WSW 33 46 18 25 1008.9 1008.8 6.4
18/03:44pm 16.4 11.3 10.7 69 3.0 WSW 28 46 15 25 1008.8 1008.7 6.4
18/03:30pm 15.2 10.5 12.1 82 1.7 W 28 35 15 19 1008.7 1008.6 6.4
18/03:02pm 13.8 5.3 8.4 70 2.7 WSW 43 69 23 37 1008.7 1008.6 6.0
18/03:00pm 14.8 6.6 8.3 65 3.3 WSW 41 69 22 37 1008.4 1008.3 6.0
18/02:52pm 16.8 11.5 10.0 64 3.6 WSW 28 46 15 25 1008.0 1007.9 6.0
18/02:30pm 16.7 11.9 11.8 73 2.7 WSW 28 37 15 20 1007.8 1007.7 6.0
18/02:00pm 15.6 10.9 12.0 79 2.0 WSW 28 35 15 19 1007.9 1007.8 6.0
18/01:30pm 15.4 12.2 13.1 86 1.3 W 22 30 12 16 1007.6 1007.5 6.0
18/01:00pm 13.8 9.8 12.9 94 0.5 W 26 35 14 19 1007.4 1007.3 6.0
18/12:30pm 12.6 6.8 11.5 93 0.6 W 33 44 18 24 1007.4 1007.3 5.2
18/12:03pm 13.5 5.8 8.8 73 2.4 W 39 70 21 38 1007.0 1006.9 0.8
18/12:00pm 15.3 9.0 9.0 66 3.2 WNW 32 70 17 38 1006.7 1006.6 0.4
18/11:59am 17.4 11.9 9.3 59 4.2 WNW 28 70 15 38 1006.6 1006.5 0.0
18/11:30am 19.8 14.2 10.0 53 5.3 WNW 30 44 16 24 1006.1 1006.0 0.0
18/11:00am 17.9 11.8 9.8 59 4.3 WNW 32 46 17 25 1006.3 1006.2 0.0
18/10:42am 17.2 12.0 10.1 63 3.8 NW 28 46 15 25 1006.3 1006.2 0.0
18/10:30am 16.5 10.2 9.7 64 3.6 NW 33 44 18 24 1006.3 1006.2 0.0
18/10:02am 16.2 9.9 9.6 65 3.4 NW 33 52 18 28 1006.5 1006.4 0.0
18/10:00am 16.3 9.6 9.7 65 3.5 NW 35 52 19 28 1006.4 1006.3 0.0
18/09:58am 16.5 10.3 9.9 65 3.5 NW 33 52 18 28 1006.4 1006.3 0.0
18/09:30am 16.1 9.7 9.5 65 3.4 NW 33 43 18 23 1006.4 1006.3 0.0
18/09:00am 16.2 10.8 9.4 64 3.5 NW 28 43 15 23 1006.4 1006.3 0.0
18/08:30am 15.6 10.4 8.8 64 3.5 NNW 26 35 14 19 1006.1 1006.0 0.0
18/08:00am 13.5 10.0 8.8 73 2.4 N 17 24 9 13 1006.1 1006.0 0.0
18/07:30am 10.8 7.2 8.2 84 1.3 N 17 22 9 12 1005.9 1005.8 0.0
18/07:00am 9.7 6.0 7.8 88 0.9 N 17 20 9 11 1005.6 1005.5 0.0
18/06:30am 8.0 4.0 6.5 90 0.7 N 17 20 9 11 1005.4 1005.3 0.0
18/06:00am 7.0 3.1 5.3 89 0.8 N 15 17 8 9 1005.5 1005.4 0.0
18/05:30am 7.4 4.0 5.9 90 0.7 N 13 17 7 9 1005.3 1005.2 0.0
18/05:00am 7.9 3.9 6.5 91 0.6 NNE 17 19 9 10 1005.1 1005.0 0.0
18/04:30am 6.7 2.8 5.3 91 0.6 N 15 15 8 8 1005.3 1005.2 0.0
18/04:00am 5.8 2.8 4.3 90 0.6 N 9 11 5 6 1005.6 1005.5 0.0
18/03:30am 6.0 2.3 4.3 89 0.7 NNE 13 15 7 8 1005.7 1005.6 0.0
18/03:00am 6.8 3.2 5.0 88 0.8 N 13 15 7 8 1006.2 1006.1 0.0
18/02:30am 6.6 3.7 4.4 86 1.0 N 9 11 5 6 1006.5 1006.4 0.0
18/02:00am 8.0 4.9 5.6 85 1.1 N 11 13 6 7 1006.8 1006.7 0.0
18/01:30am 8.9 5.7 6.9 87 0.9 N 13 15 7 8 1007.0 1006.9 0.0
18/01:00am 8.7 5.5 7.0 89 0.8 NNE 13 15 7 8 1007.1 1007.0 0.0
18/12:30am 8.3 5.0 6.6 89 0.8 NNE 13 13 7 7 1007.4 1007.3 0.0
18/12:00am 7.5 4.0 5.6 88 0.9 NNE 13 13 7 7 1007.5 1007.4 0.0
 
Date/Time
EDT
Temp
°C
App
Temp
°C
Dew
Point
Rel
Hum
%
Delta-T
°C
Wind Press
QNH
hPa
Press
MSL
hPa
Rain
since 9 am
mm
Dir
 
Spd
km/h
Gust
km/h
Spd
kts
Gust
kts
17/11:30pm 7.2 4.9 5.0 86 1.0 N 6 11 3 6 1007.7 1007.6 0.0
17/11:00pm 7.9 6.9 5.4 84 1.1 CALM 0 0 0 0 1008.1 1008.0 0.0
17/10:30pm 9.3 8.3 5.7 78 1.6 CALM 0 0 0 0 1008.1 1008.0 0.0
17/10:00pm 10.2 9.3 6.0 75 2.0 CALM 0 0 0 0 1008.2 1008.1 0.0
17/09:30pm 11.2 10.4 6.3 72 2.3 CALM 0 0 0 0 1008.2 1008.1 0.0
17/09:00pm 11.9 9.4 6.4 69 2.6 SSW 9 11 5 6 1008.2 1008.1 0.0
17/08:30pm 14.1 11.3 6.9 62 3.5 SSW 11 15 6 8 1008.3 1008.2 0.0
17/08:00pm 15.6 12.0 6.9 56 4.3 S 15 20 8 11 1008.1 1008.0 0.0
17/07:30pm 16.4 12.3 6.2 51 5.0 SSW 17 22 9 12 1007.9 1007.8 0.0
17/07:00pm 16.7 12.0 6.2 50 5.2 SW 20 28 11 15 1007.8 1007.7 0.0
17/06:30pm 17.1 12.2 6.9 51 5.1 SW 22 32 12 17 1007.8 1007.7 0.0
17/06:00pm 17.5 12.6 6.7 49 5.4 SW 22 32 12 17 1007.8 1007.7 0.0
17/05:30pm 17.6 11.8 6.2 47 5.6 SW 26 33 14 18 1007.9 1007.8 0.0
17/05:00pm 17.8 12.5 7.0 49 5.4 SW 24 33 13 18 1008.3 1008.2 0.0
17/04:30pm 17.1 11.5 7.2 52 5.0 SW 26 35 14 19 1008.5 1008.4 0.0
17/04:00pm 18.6 13.6 8.0 50 5.5 SSW 24 39 13 21 1008.4 1008.3 0.0
17/03:30pm 17.6 12.6 7.9 53 4.9 SSW 24 37 13 20 1008.6 1008.5 0.0
17/03:00pm 17.6 12.6 8.2 54 4.8 SW 24 33 13 18 1008.8 1008.7 0.0
17/02:30pm 17.2 11.9 7.0 51 5.1 SSW 24 32 13 17 1009.0 1008.9 0.0
17/02:00pm 18.4 12.6 7.8 50 5.4 SW 28 41 15 22 1009.1 1009.0 0.0
17/01:30pm 16.7 11.5 7.4 54 4.7 SSW 24 32 13 17 1009.3 1009.2 0.0
17/01:00pm 16.8 12.2 6.6 51 5.0 SW 20 33 11 18 1009.3 1009.2 0.0
17/12:30pm 17.3 12.1 7.4 52 5.0 SW 24 35 13 19 1009.4 1009.3 0.0
17/12:00pm 16.9 12.5 4.6 44 5.8 WSW 17 28 9 15 1009.3 1009.2 0.0
17/11:30am 17.3 12.9 4.6 43 6.0 W 17 26 9 14 1009.2 1009.1 0.0
17/11:00am 16.9 12.5 4.6 44 5.8 WSW 17 26 9 14 1009.1 1009.0 0.0
17/10:30am 17.0 12.5 6.2 49 5.3 W 19 30 10 16 1009.4 1009.3 0.0

Other Formats:

Comma delimited format used in spreadsheet applications
http://www.bom.gov.au/fwo/IDV60801/IDV60801.94837.axf

JavaScript Object Notation format (JSON) in row-major order
http://www.bom.gov.au/fwo/IDV60801/IDV60801.94837.json